Time;durP1;ratioP1;P1;durP2;ratioP2;P2;SDS_P1;SDS_P2;PMS_P1;PMS_P2;Temp;Humidity;BMP_temperature;BMP_pressure;BME280_temperature;BME280_humidity;BME280_pressure;Samples;Min_cycle;Max_cycle;Signal;HPM_P1;HPM_P2
2021/07/09 00:01:14;;;;;;;12.68;7.72;;;17.20;99.90;;;;;;5074533;28;20774;-76
2021/07/09 00:03:41;;;;;;;11.30;7.27;;;17.50;99.90;;;;;;5056157;28;20388;-76
2021/07/09 00:06:07;;;;;;;12.30;8.02;;;17.50;99.90;;;;;;5074388;28;20818;-77
2021/07/09 00:08:32;;;;;;;9.80;7.63;;;17.30;99.90;;;;;;5075348;28;20380;-76
2021/07/09 00:10:58;;;;;;;12.37;8.70;;;17.10;99.90;;;;;;5076254;28;20721;-76
2021/07/09 00:13:24;;;;;;;11.90;8.23;;;17.00;99.90;;;;;;5078950;28;20384;-77
2021/07/09 00:15:49;;;;;;;11.03;8.03;;;17.00;99.90;;;;;;5080550;28;20376;-77
2021/07/09 00:18:15;;;;;;;11.77;7.10;;;17.10;99.90;;;;;;5078264;28;20398;-76
2021/07/09 00:20:40;;;;;;;10.60;8.30;;;17.10;99.90;;;;;;5076614;28;20752;-77
2021/07/09 00:23:06;;;;;;;9.47;7.20;;;17.30;99.90;;;;;;5058051;28;20388;-77
2021/07/09 00:25:32;;;;;;;13.40;7.83;;;17.30;99.90;;;;;;5077509;28;20473;-77
2021/07/09 00:27:58;;;;;;;11.75;7.55;;;17.20;99.90;;;;;;5078970;28;20392;-75
2021/07/09 00:30:23;;;;;;;14.07;7.50;;;17.20;99.90;;;;;;5081064;28;20458;-75
2021/07/09 00:32:49;;;;;;;10.50;7.20;;;17.40;99.90;;;;;;5079154;28;20464;-75
2021/07/09 00:35:15;;;;;;;12.93;7.40;;;17.40;99.90;;;;;;5077531;28;20396;-76
2021/07/09 00:37:40;;;;;;;10.88;7.68;;;17.50;99.90;;;;;;5076233;28;20886;-77
2021/07/09 00:40:08;;;;;;;11.48;7.68;;;17.40;99.90;;;;;;5075038;28;20470;-76
2021/07/09 00:42:34;;;;;;;13.85;7.55;;;17.50;99.90;;;;;;5073615;28;20433;-77
2021/07/09 00:45:00;;;;;;;11.48;8.10;;;17.80;99.90;;;;;;5057873;28;20387;-76
2021/07/09 00:47:26;;;;;;;12.05;8.30;;;17.70;99.90;;;;;;5075725;28;20398;-76
2021/07/09 00:49:51;;;;;;;11.60;7.87;;;17.60;99.90;;;;;;5076112;28;20430;-77
2021/07/09 00:52:19;;;;;;;11.32;8.30;;;17.50;99.90;;;;;;5075645;28;20437;-78
2021/07/09 00:54:44;;;;;;;14.25;7.80;;;17.40;99.90;;;;;;5076474;28;20380;-76
2021/07/09 00:57:11;;;;;;;11.82;7.95;;;17.40;99.90;;;;;;5076417;28;20375;-76
2021/07/09 00:59:36;;;;;;;13.65;7.80;;;17.30;99.90;;;;;;5075494;28;20379;-77
2021/07/09 01:02:02;;;;;;;9.50;7.00;;;17.30;99.90;;;;;;5075002;28;20395;-77
2021/07/09 01:04:28;;;;;;;13.13;8.52;;;17.30;99.90;;;;;;5073904;28;20474;-77
2021/07/09 01:06:54;;;;;;;9.02;7.80;;;17.30;99.90;;;;;;5073214;28;20418;-77
2021/07/09 01:09:20;;;;;;;11.10;8.20;;;17.30;99.90;;;;;;5073326;28;20404;-80
2021/07/09 01:11:50;;;;;;;15.65;8.90;;;17.30;99.90;;;;;;5073113;28;20860;-78
2021/07/09 01:14:17;;;;;;;10.63;8.20;;;17.30;99.90;;;;;;5072790;28;20380;-77
2021/07/09 01:16:44;;;;;;;13.93;8.70;;;17.20;99.90;;;;;;5073759;28;20388;-77
2021/07/09 01:19:17;;;;;;;11.25;8.00;;;17.30;99.90;;;;;;5073923;28;20415;-76
2021/07/09 01:21:47;;;;;;;17.50;9.10;;;17.30;99.90;;;;;;5055573;28;20894;-77
2021/07/09 01:24:13;;;;;;;14.27;9.80;;;17.30;99.90;;;;;;5056292;28;20395;-77
2021/07/09 01:26:40;;;;;;;15.43;10.53;;;17.40;99.90;;;;;;5073569;28;20475;-77
2021/07/09 01:29:06;;;;;;;17.48;10.45;;;17.40;99.90;;;;;;5056206;28;20458;-76
2021/07/09 01:31:33;;;;;;;16.52;12.13;;;17.40;99.90;;;;;;5072972;28;20419;-77
2021/07/09 01:33:58;;;;;;;16.77;10.30;;;17.40;99.90;;;;;;5072536;28;20386;-77
2021/07/09 01:36:24;;;;;;;18.85;10.93;;;17.30;99.90;;;;;;5072091;28;20391;-77
2021/07/09 01:38:51;;;;;;;17.80;11.47;;;17.30;99.90;;;;;;5072696;28;20383;-77
2021/07/09 01:41:17;;;;;;;15.45;11.93;;;17.20;99.90;;;;;;5054275;28;20396;-77
2021/07/09 01:43:44;;;;;;;17.00;11.95;;;17.20;99.90;;;;;;5057179;28;20445;-77
2021/07/09 01:46:10;;;;;;;12.73;10.98;;;17.20;99.90;;;;;;5079550;28;20915;-77
2021/07/09 01:48:36;;;;;;;20.50;11.30;;;17.30;99.90;;;;;;5072764;28;20445;-76
2021/07/09 01:51:02;;;;;;;19.98;12.15;;;17.30;99.90;;;;;;5054134;28;20383;-77
2021/07/09 01:53:28;;;;;;;13.07;10.48;;;17.30;99.90;;;;;;5071882;28;20407;-77
2021/07/09 01:55:54;;;;;;;19.43;12.80;;;17.30;99.90;;;;;;5072784;28;20856;-77
2021/07/09 01:58:19;;;;;;;19.40;12.55;;;17.30;99.90;;;;;;5053737;28;20471;-76
2021/07/09 02:00:46;;;;;;;20.70;12.70;;;17.30;99.90;;;;;;5072477;28;20392;-78
2021/07/09 02:03:12;;;;;;;14.80;11.35;;;17.40;99.90;;;;;;5072340;28;20740;-77
2021/07/09 02:05:37;;;;;;;17.87;11.43;;;17.40;99.90;;;;;;5053725;28;20390;-77
2021/07/09 02:08:04;;;;;;;17.50;11.80;;;17.70;99.90;;;;;;5071835;28;20465;-76
2021/07/09 02:10:33;;;;;;;19.55;12.15;;;17.80;99.90;;;;;;5072527;28;20768;-79
2021/07/09 02:12:59;;;;;;;24.63;12.77;;;18.00;99.90;;;;;;5071486;28;20379;-77
2021/07/09 02:15:28;;;;;;;22.23;13.00;;;18.00;99.40;;;;;;5070864;28;20459;-77
2021/07/09 02:17:54;;;;;;;20.25;13.40;;;18.00;98.80;;;;;;5053753;28;20438;-76
2021/07/09 02:20:22;;;;;;;18.40;12.73;;;18.00;99.20;;;;;;5072071;28;20891;-77
2021/07/09 02:22:48;;;;;;;24.02;13.50;;;18.00;99.10;;;;;;5071760;28;20394;-77
2021/07/09 02:25:14;;;;;;;23.30;12.95;;;17.90;99.90;;;;;;5071714;28;20398;-77
2021/07/09 02:27:42;;;;;;;20.40;13.30;;;17.70;99.90;;;;;;5053664;28;20383;-76
2021/07/09 02:30:10;;;;;;;18.95;12.68;;;17.80;99.90;;;;;;5072351;28;20408;-77
2021/07/09 02:32:36;;;;;;;19.65;12.75;;;17.80;99.90;;;;;;5073226;28;20470;-78
2021/07/09 02:35:04;;;;;;;18.67;12.93;;;17.60;99.90;;;;;;5072752;28;20431;-76
2021/07/09 02:37:32;;;;;;;17.42;12.00;;;17.60;99.90;;;;;;5072313;28;20482;-78
2021/07/09 02:39:58;;;;;;;18.60;13.80;;;17.50;99.90;;;;;;5072841;28;20411;-78
2021/07/09 02:42:25;;;;;;;18.27;12.43;;;17.40;99.90;;;;;;5074647;28;20465;-78
2021/07/09 02:44:50;;;;;;;22.92;12.90;;;17.30;99.90;;;;;;5074918;28;20379;-78
2021/07/09 02:47:16;;;;;;;20.05;13.23;;;17.30;99.90;;;;;;5074839;28;20398;-76
2021/07/09 02:49:42;;;;;;;21.38;12.52;;;17.20;99.90;;;;;;5074753;28;20418;-78
2021/07/09 02:52:08;;;;;;;17.45;12.68;;;17.20;99.90;;;;;;5056615;28;20383;-77
2021/07/09 02:54:34;;;;;;;22.77;11.90;;;17.30;99.90;;;;;;5074267;28;20862;-76
2021/07/09 02:56:59;;;;;;;21.25;13.27;;;17.50;99.90;;;;;;5074864;28;20386;-77
2021/07/09 02:59:25;;;;;;;15.17;11.80;;;17.40;99.90;;;;;;5056786;28;20387;-77
2021/07/09 03:01:50;;;;;;;17.50;12.07;;;17.30;99.90;;;;;;5078401;28;20748;-77
2021/07/09 03:04:16;;;;;;;17.85;11.77;;;17.40;99.90;;;;;;5076004;28;20813;-77
2021/07/09 03:06:42;;;;;;;18.30;10.50;;;17.70;99.90;;;;;;5056776;28;20925;-76
2021/07/09 03:09:09;;;;;;;14.07;9.50;;;17.90;99.90;;;;;;5057397;28;20745;-76
2021/07/09 03:11:36;;;;;;;13.73;9.52;;;18.10;99.90;;;;;;5072843;28;20419;-77
2021/07/09 03:14:03;;;;;;;14.07;10.05;;;18.10;99.90;;;;;;5073865;28;20744;-77
2021/07/09 03:16:28;;;;;;;18.50;10.77;;;18.00;99.90;;;;;;5074856;28;20380;-76
2021/07/09 03:18:54;;;;;;;17.27;11.03;;;17.90;99.90;;;;;;5058319;28;20387;-76
2021/07/09 03:21:19;;;;;;;20.83;11.57;;;17.80;99.90;;;;;;5075300;28;20819;-75
2021/07/09 03:23:45;;;;;;;17.05;11.80;;;17.80;99.90;;;;;;5073820;28;20903;-76
2021/07/09 03:26:10;;;;;;;18.52;12.45;;;17.80;99.90;;;;;;5074109;28;20674;-78
2021/07/09 03:28:36;;;;;;;18.50;12.90;;;17.80;99.90;;;;;;5073991;28;20379;-76
2021/07/09 03:31:02;;;;;;;25.00;13.50;;;17.80;99.90;;;;;;5073769;28;20421;-76
2021/07/09 03:33:27;;;;;;;19.70;12.65;;;17.80;99.90;;;;;;5072427;28;20384;-77
2021/07/09 03:35:53;;;;;;;20.70;12.75;;;17.80;99.90;;;;;;5066558;22;20474;-70
2021/07/09 03:38:20;;;;;;;23.20;13.70;;;17.80;99.90;;;;;;5033400;28;20379;-70
2021/07/09 03:40:46;;;;;;;22.05;13.77;;;17.80;99.90;;;;;;5033198;28;20383;-71
2021/07/09 03:43:11;;;;;;;20.45;13.52;;;17.80;99.90;;;;;;5032983;28;20437;-70
2021/07/09 03:45:37;;;;;;;26.97;14.70;;;17.80;99.90;;;;;;5032903;28;20389;-70
2021/07/09 03:48:04;;;;;;;23.17;14.57;;;17.80;99.90;;;;;;5033533;28;20828;-71
2021/07/09 03:50:29;;;;;;;21.33;14.43;;;17.80;99.90;;;;;;5033002;28;20411;-70
2021/07/09 03:52:55;;;;;;;28.50;17.30;;;17.90;99.90;;;;;;5033105;28;20438;-70
2021/07/09 03:55:21;;;;;;;24.83;17.30;;;17.90;99.90;;;;;;5032846;28;20380;-71
2021/07/09 03:57:46;;;;;;;28.47;18.37;;;17.90;99.90;;;;;;5032354;28;20941;-70
2021/07/09 04:00:14;;;;;;;28.43;19.30;;;17.90;99.90;;;;;;5031974;28;20395;-71
2021/07/09 04:02:40;;;;;;;30.35;19.80;;;17.90;99.90;;;;;;5047720;28;20400;-70
2021/07/09 04:05:06;;;;;;;32.97;19.90;;;17.90;99.90;;;;;;5048074;28;20929;-70
2021/07/09 04:07:31;;;;;;;30.83;19.37;;;18.00;99.90;;;;;;5032644;28;20475;-70
2021/07/09 04:09:57;;;;;;;35.73;20.00;;;18.00;99.90;;;;;;5047703;28;20507;-72
2021/07/09 04:12:23;;;;;;;32.42;20.20;;;17.90;99.90;;;;;;5032441;28;20486;-72
2021/07/09 04:14:48;;;;;;;36.72;20.08;;;17.90;99.90;;;;;;5032231;28;20383;-72
2021/07/09 04:17:14;;;;;;;34.10;21.97;;;17.90;99.90;;;;;;5032510;28;20871;-70
2021/07/09 04:19:39;;;;;;;35.47;21.17;;;17.90;99.90;;;;;;5032277;28;20406;-70
2021/07/09 04:22:06;;;;;;;34.17;21.20;;;18.00;99.90;;;;;;5032522;28;20419;-70
2021/07/09 04:24:31;;;;;;;38.28;21.83;;;18.00;99.90;;;;;;5032109;28;20390;-70
2021/07/09 04:26:57;;;;;;;34.07;22.10;;;18.00;99.90;;;;;;5032143;28;20772;-71
2021/07/09 04:29:22;;;;;;;40.35;24.33;;;18.00;99.90;;;;;;5047562;28;20441;-70
2021/07/09 04:31:48;;;;;;;35.53;22.83;;;18.00;99.90;;;;;;5031332;28;20383;-72
2021/07/09 04:34:14;;;;;;;39.23;23.60;;;18.00;99.90;;;;;;5032179;28;20482;-71
2021/07/09 04:36:40;;;;;;;36.50;24.63;;;18.10;99.90;;;;;;5032166;28;20403;-72
2021/07/09 04:39:06;;;;;;;35.92;24.30;;;18.10;99.90;;;;;;5032356;28;20767;-72
2021/07/09 04:41:31;;;;;;;40.80;25.07;;;18.10;99.90;;;;;;5032342;28;20389;-72
2021/07/09 04:43:57;;;;;;;40.10;25.07;;;18.10;99.90;;;;;;5032038;28;20383;-72
2021/07/09 04:46:22;;;;;;;39.25;25.98;;;18.10;99.90;;;;;;5031607;28;20415;-71
2021/07/09 04:48:48;;;;;;;40.83;25.65;;;18.10;99.70;;;;;;5031813;28;20463;-71
2021/07/09 04:51:13;;;;;;;41.33;26.63;;;18.10;99.80;;;;;;5031940;28;20391;-72
2021/07/09 04:53:39;;;;;;;46.50;27.73;;;18.10;99.90;;;;;;5031845;28;20744;-69
2021/07/09 04:56:05;;;;;;;42.30;28.30;;;18.10;99.90;;;;;;5031704;28;20418;-69
2021/07/09 04:58:30;;;;;;;38.55;26.30;;;18.10;99.90;;;;;;5031438;28;20794;-71
2021/07/09 05:00:56;;;;;;;41.13;27.70;;;18.20;99.30;;;;;;5031455;28;20414;-70
2021/07/09 05:03:21;;;;;;;45.60;28.13;;;18.20;98.80;;;;;;5031099;28;20473;-71
2021/07/09 05:05:47;;;;;;;46.25;29.23;;;18.20;99.20;;;;;;5031263;28;20383;-70
2021/07/09 05:08:13;;;;;;;43.53;27.80;;;18.10;99.40;;;;;;5031042;28;20395;-70
2021/07/09 05:10:38;;;;;;;41.10;27.60;;;18.20;99.10;;;;;;5031075;28;20387;-70
2021/07/09 05:13:05;;;;;;;47.67;30.33;;;18.30;98.30;;;;;;5031397;28;20391;-70
2021/07/09 05:15:32;;;;;;;50.22;29.65;;;18.20;99.00;;;;;;5031626;28;20391;-71
2021/07/09 05:17:57;;;;;;;45.30;29.80;;;18.30;99.00;;;;;;5031436;28;20388;-71
2021/07/09 05:20:23;;;;;;;47.72;29.95;;;18.40;97.80;;;;;;5031214;28;20398;-71
2021/07/09 05:22:48;;;;;;;46.25;28.55;;;18.40;97.70;;;;;;5030982;28;20405;-71
2021/07/09 05:25:14;;;;;;;50.50;30.83;;;18.50;98.00;;;;;;5031066;28;20385;-71
2021/07/09 05:27:40;;;;;;;45.80;30.40;;;18.60;96.20;;;;;;5030908;28;20379;-71
2021/07/09 05:30:07;;;;;;;45.37;30.80;;;18.60;95.40;;;;;;5031210;28;20465;-71
2021/07/09 05:32:33;;;;;;;49.13;31.27;;;18.70;96.70;;;;;;5030822;28;20401;-71
2021/07/09 05:34:59;;;;;;;51.60;31.95;;;18.60;94.90;;;;;;5030586;28;20807;-71
2021/07/09 05:37:26;;;;;;;47.40;30.42;;;18.70;96.10;;;;;;5030685;28;20387;-71
2021/07/09 05:39:52;;;;;;;54.88;33.28;;;18.70;95.30;;;;;;5030379;28;20403;-71
2021/07/09 05:42:19;;;;;;;50.45;32.03;;;18.70;96.00;;;;;;5030630;28;20386;-71
2021/07/09 05:44:44;;;;;;;47.45;31.90;;;18.70;96.10;;;;;;5030244;28;20724;-71
2021/07/09 05:47:11;;;;;;;53.30;32.08;;;18.70;95.80;;;;;;5030554;28;20394;-71
2021/07/09 05:49:37;;;;;;;63.70;33.33;;;18.80;95.70;;;;;;5030404;28;20872;-70
2021/07/09 05:52:04;;;;;;;52.20;31.40;;;18.80;95.30;;;;;;5030533;28;20418;-71
2021/07/09 05:54:29;;;;;;;54.10;33.08;;;18.90;95.10;;;;;;5030001;28;20481;-71
2021/07/09 05:56:55;;;;;;;54.20;33.63;;;18.90;94.00;;;;;;5030413;28;20461;-71
2021/07/09 05:59:21;;;;;;;48.50;33.37;;;19.00;94.60;;;;;;5030220;28;20410;-71
2021/07/09 06:01:46;;;;;;;52.50;34.10;;;19.00;93.80;;;;;;5028841;28;20391;-71
2021/07/09 06:04:14;;;;;;;49.55;33.63;;;19.00;93.90;;;;;;5030231;28;20379;-71
2021/07/09 06:06:40;;;;;;;50.00;33.38;;;19.00;92.70;;;;;;5030406;28;20512;-71
2021/07/09 06:09:05;;;;;;;49.63;32.93;;;19.10;92.60;;;;;;5030926;28;20418;-71
2021/07/09 06:11:31;;;;;;;53.00;33.30;;;19.20;92.40;;;;;;5031389;28;20486;-71
2021/07/09 06:13:56;;;;;;;52.65;32.03;;;19.30;91.60;;;;;;5031310;28;20441;-71
2021/07/09 06:16:23;;;;;;;48.58;32.53;;;19.30;90.00;;;;;;5030738;28;20402;-71
2021/07/09 06:18:49;;;;;;;54.55;32.92;;;19.40;89.70;;;;;;5031038;28;20478;-71
2021/07/09 06:21:15;;;;;;;50.85;32.53;;;19.40;89.70;;;;;;5030185;28;20383;-71
2021/07/09 06:23:41;;;;;;;48.60;32.20;;;19.30;90.20;;;;;;5030275;28;20387;-72
2021/07/09 06:26:07;;;;;;;48.65;32.22;;;19.30;89.70;;;;;;5030124;28;20383;-71
2021/07/09 06:28:33;;;;;;;50.28;32.78;;;19.30;90.90;;;;;;5030536;28;20387;-72
2021/07/09 06:30:59;;;;;;;51.80;32.63;;;19.30;90.00;;;;;;5030656;28;20818;-71
2021/07/09 06:33:24;;;;;;;52.08;33.15;;;19.30;89.40;;;;;;5030946;28;20383;-72
2021/07/09 06:35:50;;;;;;;51.25;32.40;;;19.30;88.70;;;;;;5030376;28;20422;-72
2021/07/09 06:38:15;;;;;;;51.13;32.70;;;19.40;88.30;;;;;;5031025;28;20379;-72
2021/07/09 06:40:43;;;;;;;53.80;32.67;;;19.60;86.30;;;;;;5031275;28;20925;-72
2021/07/09 06:43:11;;;;;;;47.72;31.25;;;19.60;85.80;;;;;;5030295;28;20395;-72
2021/07/09 06:45:38;;;;;;;51.13;33.75;;;19.60;87.10;;;;;;5030398;28;20827;-73
2021/07/09 06:48:05;;;;;;;55.15;31.58;;;19.70;84.20;;;;;;5031516;28;20434;-73
2021/07/09 06:50:30;;;;;;;56.53;32.40;;;19.70;83.60;;;;;;5030279;28;20391;-72
2021/07/09 06:52:56;;;;;;;48.70;31.77;;;19.80;82.90;;;;;;5045082;28;20487;-72
2021/07/09 06:55:21;;;;;;;52.27;31.60;;;19.90;81.70;;;;;;5029838;28;20390;-72
2021/07/09 06:57:47;;;;;;;42.60;29.63;;;20.00;82.50;;;;;;5044854;28;20461;-72
2021/07/09 07:00:17;;;;;;;45.28;30.23;;;20.10;80.20;;;;;;5030048;28;20422;-73
2021/07/09 07:02:44;;;;;;;51.17;30.98;;;20.20;78.80;;;;;;5029851;28;20391;-71
2021/07/09 07:05:11;;;;;;;50.90;31.67;;;20.10;77.90;;;;;;5029633;28;20383;-71
2021/07/09 07:07:36;;;;;;;54.30;31.27;;;20.00;80.80;;;;;;5029620;28;20375;-72
2021/07/09 07:10:04;;;;;;;49.03;30.02;;;20.00;80.90;;;;;;5029711;28;20394;-72
2021/07/09 07:12:30;;;;;;;54.88;31.88;;;20.10;77.10;;;;;;5029845;28;20383;-72
2021/07/09 07:14:55;;;;;;;47.83;31.67;;;20.10;78.50;;;;;;5029487;28;20391;-72
2021/07/09 07:17:21;;;;;;;45.25;29.85;;;20.40;75.30;;;;;;5030145;28;20741;-73
2021/07/09 07:19:46;;;;;;;49.27;30.43;;;20.40;73.30;;;;;;5029822;28;20406;-72
2021/07/09 07:22:12;;;;;;;50.70;30.90;;;20.40;72.80;;;;;;5029995;28;20379;-72
2021/07/09 07:24:38;;;;;;;48.80;29.93;;;20.60;68.80;;;;;;5029467;28;20390;-71
2021/07/09 07:27:04;;;;;;;46.72;30.45;;;20.70;67.60;;;;;;5029768;28;20383;-71
2021/07/09 07:29:30;;;;;;;45.88;30.30;;;20.90;66.10;;;;;;5029463;28;20387;-71
2021/07/09 07:31:55;;;;;;;50.00;30.37;;;21.10;66.10;;;;;;5028502;28;20935;-72
2021/07/09 07:34:21;;;;;;;49.85;29.90;;;21.10;63.90;;;;;;5032568;28;20486;-72
2021/07/09 07:36:47;;;;;;;46.90;28.90;;;21.20;62.40;;;;;;5032760;28;20407;-72
2021/07/09 07:39:13;;;;;;;43.40;27.20;;;21.30;63.00;;;;;;5031983;28;20521;-71
2021/07/09 07:41:39;;;;;;;45.30;26.80;;;21.50;58.20;;;;;;5033172;28;20407;-72
2021/07/09 07:44:05;;;;;;;44.90;28.10;;;21.50;55.90;;;;;;5032954;28;20477;-72
2021/07/09 07:46:31;;;;;;;47.50;29.17;;;21.40;58.70;;;;;;5032836;28;20383;-71
2021/07/09 07:48:57;;;;;;;47.63;28.50;;;21.30;58.30;;;;;;5032681;28;20482;-72
2021/07/09 07:51:23;;;;;;;44.13;29.45;;;21.20;60.70;;;;;;5032698;28;20441;-71
2021/07/09 07:53:50;;;;;;;48.72;27.90;;;21.30;59.20;;;;;;5032769;28;20388;-71
2021/07/09 07:56:17;;;;;;;44.15;26.83;;;21.20;61.00;;;;;;5032929;28;20414;-72
2021/07/09 07:58:43;;;;;;;47.20;28.25;;;21.20;60.50;;;;;;5032900;28;20589;-72
2021/07/09 08:01:10;;;;;;;46.85;28.00;;;21.10;64.10;;;;;;5032884;28;20390;-72
2021/07/09 08:03:36;;;;;;;55.75;29.02;;;21.20;61.80;;;;;;5032458;28;20383;-71
2021/07/09 08:06:03;;;;;;;46.38;31.00;;;21.40;59.50;;;;;;5032590;28;20391;-72
2021/07/09 08:08:29;;;;;;;47.20;28.25;;;21.50;56.90;;;;;;5032341;28;20386;-73
2021/07/09 08:10:55;;;;;;;44.70;27.85;;;21.70;55.30;;;;;;5032800;28;20790;-72
2021/07/09 08:13:21;;;;;;;42.22;28.20;;;22.10;51.10;;;;;;5032350;28;20390;-71
2021/07/09 08:15:46;;;;;;;45.40;29.70;;;22.30;49.30;;;;;;5032515;28;20470;-72
2021/07/09 08:18:12;;;;;;;38.00;26.92;;;22.60;46.60;;;;;;5032391;28;20497;-73
2021/07/09 08:20:42;;;;;;;39.43;26.47;;;22.60;44.70;;;;;;5032322;28;20425;-72
2021/07/09 08:23:08;;;;;;;44.65;25.98;;;22.70;45.50;;;;;;5032723;28;20418;-73
2021/07/09 08:25:34;;;;;;;35.50;25.55;;;22.70;44.00;;;;;;5032483;28;20390;-73
2021/07/09 08:27:59;;;;;;;39.70;25.52;;;22.70;45.50;;;;;;5032367;28;20391;-71
2021/07/09 08:30:25;;;;;;;39.13;24.58;;;22.70;43.40;;;;;;5032309;28;20494;-70
2021/07/09 08:32:51;;;;;;;37.67;23.73;;;22.70;42.60;;;;;;5032048;28;20391;-71
2021/07/09 08:35:16;;;;;;;37.03;24.30;;;22.40;42.40;;;;;;5032339;28;20408;-71
2021/07/09 08:37:42;;;;;;;35.50;23.70;;;22.20;44.40;;;;;;5032260;28;20384;-71
2021/07/09 08:40:09;;;;;;;33.88;23.88;;;22.30;45.90;;;;;;5033693;28;20472;-72
2021/07/09 08:42:36;;;;;;;39.70;23.50;;;22.40;42.50;;;;;;5035800;28;20396;-72
2021/07/09 08:45:04;;;;;;;36.92;22.65;;;22.30;43.50;;;;;;5032788;28;20406;-75
2021/07/09 08:47:32;;;;;;;30.90;21.60;;;22.70;41.40;;;;;;5031868;28;20389;-72
2021/07/09 08:50:00;;;;;;;32.40;21.85;;;23.00;40.00;;;;;;5031889;28;20425;-71
2021/07/09 08:52:26;;;;;;;32.47;21.30;;;23.30;36.80;;;;;;5031735;28;20390;-71
2021/07/09 08:54:52;;;;;;;30.83;19.37;;;23.30;36.20;;;;;;5031823;28;20387;-73
2021/07/09 08:57:17;;;;;;;32.87;19.47;;;23.10;37.30;;;;;;5031937;28;20391;-70
2021/07/09 08:59:43;;;;;;;31.02;19.98;;;22.80;37.70;;;;;;5031885;28;20852;-71
2021/07/09 09:02:08;;;;;;;35.63;21.30;;;22.80;38.60;;;;;;5031720;28;20379;-71
2021/07/09 09:04:36;;;;;;;32.60;21.50;;;23.00;38.20;;;;;;5031479;28;20426;-71
2021/07/09 09:07:07;;;;;;;30.60;20.23;;;22.70;39.60;;;;;;5031610;28;20432;-72
2021/07/09 09:09:36;;;;;;;34.30;20.40;;;22.60;39.10;;;;;;5031617;28;20398;-71
2021/07/09 09:12:04;;;;;;;26.27;17.98;;;22.50;40.50;;;;;;5031492;28;20390;-72
2021/07/09 09:14:32;;;;;;;24.75;18.63;;;22.40;35.50;;;;;;5031630;28;20470;-72
2021/07/09 09:16:58;;;;;;;34.22;18.60;;;22.50;37.10;;;;;;5031378;28;20383;-72
2021/07/09 09:19:24;;;;;;;28.40;16.67;;;22.70;36.70;;;;;;5031416;28;20414;-73
2021/07/09 09:22:11;;;;;;;27.10;17.05;;;22.90;35.60;;;;;;5031707;28;20379;-72
2021/07/09 09:24:38;;;;;;;26.13;16.40;;;22.80;35.50;;;;;;5031153;28;20440;-70
2021/07/09 09:27:17;;;;;;;24.90;16.42;;;23.10;34.80;;;;;;5031587;28;20379;-71
2021/07/09 09:29:43;;;;;;;28.45;17.33;;;23.40;33.10;;;;;;5031385;28;20509;-71
2021/07/09 09:32:10;;;;;;;25.40;17.60;;;23.10;33.50;;;;;;5031448;28;20470;-71
2021/07/09 09:34:36;;;;;;;25.60;17.23;;;22.70;35.60;;;;;;5031305;28;20402;-72
2021/07/09 09:37:02;;;;;;;27.30;17.80;;;22.50;37.60;;;;;;5032146;28;20395;-71
2021/07/09 09:39:28;;;;;;;26.77;19.90;;;22.60;37.60;;;;;;5031913;28;20465;-72
2021/07/09 09:42:21;;;;;;;29.00;19.50;;;22.80;36.00;;;;;;5032508;28;20456;-71
2021/07/09 09:44:52;;;;;;;31.73;21.52;;;23.10;35.20;;;;;;5030929;28;20375;-72
2021/07/09 09:47:19;;;;;;;33.30;19.80;;;23.30;34.00;;;;;;5031166;28;20403;-72
2021/07/09 09:49:53;;;;;;;31.05;18.58;;;23.60;33.10;;;;;;5031194;28;20695;-72
2021/07/09 09:52:43;;;;;;;21.13;13.98;;;23.90;32.70;;;;;;5031308;28;20386;-72
2021/07/09 09:55:30;;;;;;;23.20;14.02;;;23.40;30.70;;;;;;5030850;28;20455;-72
2021/07/09 09:58:18;;;;;;;19.20;12.30;;;23.70;30.40;;;;;;5029823;28;20399;-72
2021/07/09 10:00:49;;;;;;;19.27;12.35;;;23.50;28.30;;;;;;5031847;28;20422;-72
2021/07/09 10:03:14;;;;;;;22.25;12.25;;;23.30;29.70;;;;;;5030869;28;20383;-72
2021/07/09 10:05:44;;;;;;;19.88;13.00;;;23.10;31.20;;;;;;5030862;28;20462;-72
2021/07/09 10:08:15;;;;;;;19.20;12.67;;;23.10;32.40;;;;;;5030704;28;20455;-72
2021/07/09 10:10:42;;;;;;;20.63;12.73;;;23.60;32.90;;;;;;5030487;28;20382;-72
2021/07/09 10:13:10;;;;;;;22.40;12.25;;;23.90;32.30;;;;;;5030122;28;20413;-72
2021/07/09 10:15:39;;;;;;;20.48;13.05;;;24.00;30.70;;;;;;5030932;28;20387;-72
2021/07/09 10:18:08;;;;;;;21.45;12.98;;;23.90;32.00;;;;;;5030178;28;20892;-72
2021/07/09 10:20:34;;;;;;;22.90;14.10;;;24.10;32.40;;;;;;5030124;28;20419;-73
2021/07/09 10:23:02;;;;;;;23.20;15.27;;;23.90;30.40;;;;;;5030458;28;20405;-72
2021/07/09 10:25:29;;;;;;;25.90;16.05;;;23.70;31.90;;;;;;5030264;28;20813;-72
2021/07/09 10:27:55;;;;;;;27.05;15.32;;;23.60;31.30;;;;;;5030489;28;20926;-72
2021/07/09 10:30:21;;;;;;;23.15;14.95;;;23.50;33.00;;;;;;5030083;28;20412;-72
2021/07/09 10:32:49;;;;;;;22.20;14.40;;;23.50;32.60;;;;;;5029991;28;20470;-72
2021/07/09 10:35:33;;;;;;;21.13;14.88;;;23.40;32.10;;;;;;5030042;28;20391;-72
2021/07/09 10:38:14;;;;;;;18.75;12.90;;;23.40;33.30;;;;;;5029869;28;20493;-72
2021/07/09 10:40:41;;;;;;;23.33;14.00;;;23.40;32.70;;;;;;5029897;28;20415;-70
2021/07/09 10:43:10;;;;;;;20.33;13.75;;;23.40;32.40;;;;;;5029762;28;20405;-72
2021/07/09 10:45:40;;;;;;;19.98;13.13;;;23.70;31.50;;;;;;5029653;28;20379;-71
2021/07/09 10:48:11;;;;;;;16.60;11.48;;;23.80;28.90;;;;;;5029999;28;20453;-72
2021/07/09 10:50:47;;;;;;;18.30;10.15;;;23.70;27.30;;;;;;5029993;28;20394;-71
2021/07/09 10:53:15;;;;;;;15.27;9.30;;;23.70;25.70;;;;;;5030057;28;20383;-73
2021/07/09 10:56:05;;;;;;;13.27;9.80;;;23.80;24.70;;;;;;5030137;28;20933;-71
2021/07/09 10:58:33;;;;;;;13.20;9.15;;;23.80;24.00;;;;;;5029856;28;20479;-71
2021/07/09 11:01:10;;;;;;;13.70;9.15;;;23.90;25.60;;;;;;5029797;28;20831;-72
2021/07/09 11:03:50;;;;;;;15.95;10.70;;;24.00;24.30;;;;;;5031316;28;20383;-72
2021/07/09 11:06:20;;;;;;;16.90;10.25;;;24.20;23.50;;;;;;5030218;28;20398;-72
2021/07/09 11:08:52;;;;;;;14.27;9.52;;;24.30;23.80;;;;;;5032586;28;20493;-72
2021/07/09 11:11:45;;;;;;;14.15;9.40;;;24.30;23.20;;;;;;5033875;28;20469;-72
2021/07/09 11:14:17;;;;;;;11.40;8.60;;;24.30;23.50;;;;;;5033517;28;20867;-72
2021/07/09 11:16:58;;;;;;;12.73;8.90;;;24.50;22.20;;;;;;5033818;28;20383;-71
2021/07/09 11:19:33;;;;;;;12.98;9.05;;;24.70;21.60;;;;;;5033746;28;20410;-71
2021/07/09 11:22:10;;;;;;;14.20;9.20;;;24.20;21.10;;;;;;5033938;28;20371;-71
2021/07/09 11:24:41;;;;;;;10.80;8.80;;;23.70;21.80;;;;;;5033154;28;20433;-71
2021/07/09 11:27:09;;;;;;;12.50;7.63;;;23.60;22.80;;;;;;5033604;28;20821;-72
2021/07/09 11:29:42;;;;;;;9.93;7.30;;;23.80;21.10;;;;;;5033231;28;20421;-71
2021/07/09 11:32:17;;;;;;;9.70;7.90;;;24.00;19.80;;;;;;5033462;28;20660;-71
2021/07/09 11:34:45;;;;;;;9.30;7.05;;;24.40;20.00;;;;;;5032914;28;20403;-71
2021/07/09 11:37:13;;;;;;;11.35;8.02;;;24.30;21.10;;;;;;5033229;28;20890;-71
2021/07/09 11:39:40;;;;;;;11.50;7.43;;;24.10;19.60;;;;;;5032792;28;20567;-71
2021/07/09 11:42:07;;;;;;;8.70;6.38;;;24.30;19.80;;;;;;5033302;28;20383;-71
2021/07/09 11:44:51;;;;;;;8.85;6.15;;;24.50;19.00;;;;;;5034129;28;20399;-71
2021/07/09 11:47:34;;;;;;;9.27;6.00;;;24.30;19.70;;;;;;5034183;28;20421;-71
2021/07/09 11:50:02;;;;;;;7.80;5.75;;;24.00;19.50;;;;;;5033226;28;20395;-71
2021/07/09 11:52:36;;;;;;;7.47;5.68;;;24.00;20.10;;;;;;5032880;28;20387;-71
2021/07/09 11:55:06;;;;;;;7.18;6.28;;;24.00;19.20;;;;;;5032856;28;20804;-72
2021/07/09 11:57:35;;;;;;;8.68;6.30;;;23.80;19.00;;;;;;5032849;28;20485;-71
2021/07/09 12:00:21;;;;;;;6.60;5.90;;;23.90;19.80;;;;;;5033375;28;20530;-72
2021/07/09 12:02:48;;;;;;;9.98;7.20;;;24.10;20.10;;;;;;5032624;28;20371;-71
2021/07/09 12:05:19;;;;;;;9.98;7.78;;;24.30;19.10;;;;;;5032607;28;20709;-71
2021/07/09 12:07:47;;;;;;;10.27;6.80;;;24.50;18.50;;;;;;5032699;28;20372;-70
2021/07/09 12:10:24;;;;;;;8.27;6.15;;;25.00;16.90;;;;;;5033044;28;20410;-71
2021/07/09 12:12:53;;;;;;;9.63;7.07;;;25.10;17.40;;;;;;5032434;28;20379;-71
2021/07/09 12:15:30;;;;;;;8.45;6.70;;;24.90;16.40;;;;;;5032325;28;20421;-71
2021/07/09 12:17:59;;;;;;;10.98;7.72;;;24.90;16.70;;;;;;5032386;28;20442;-72
2021/07/09 12:20:36;;;;;;;8.63;6.70;;;25.30;17.00;;;;;;5031309;28;20595;-71
2021/07/09 12:23:04;;;;;;;9.38;7.25;;;25.30;17.00;;;;;;5032412;28;20470;-72
2021/07/09 12:25:34;;;;;;;9.90;6.53;;;24.60;17.10;;;;;;5031759;28;20391;-71
2021/07/09 12:28:08;;;;;;;10.40;7.43;;;24.60;18.40;;;;;;5032377;28;20390;-71
2021/07/09 12:30:37;;;;;;;9.55;8.18;;;24.40;18.70;;;;;;5031971;28;20540;-71
2021/07/09 12:33:06;;;;;;;11.55;8.18;;;24.40;18.30;;;;;;5031989;28;20811;-71